岡山グライダークラブ活動状況掲示板あなたは無料カウンター人目の訪問者です

岡山グライダークラブ
岡山市浦安南町639-1 岡南飛行場
 使用機:シャイベ式 SF25C型 ファルケ   JA2330
      ヴァレンティン式17E型 タイフーン  JA2342
 練習日:毎日曜日  クラブルーム:電話 086-265-1810
この掲示板は岡山グライダークラブの活動状況をお知らせする掲示板です。
!!!この掲示板は投稿規制をしています。!!!
クラブ関連各種情報は 岡山グライダークラブクラブルーム      を       .
  ブリーフイング情報は  岡山グライダークラブブリーフィングルーム  をご覧下さい。 .
※写真はクリックすると拡大して見ることが出来ます。
岡南飛行場へのアクセス等は 岡南飛行場管理事務所 をご覧ください。
クラブの ホームページ ができました。

 
10月25日
by OGC at 2020/10/26(月) 00:19:21 No.20201026001516  削除コメント
1024 x 768 x 71,521バイト
No.1

10月25日
本日の参加者
  会員      17名
  その他      1名


@本日の様子






METAR
RJBK 250000Z VRB02KT 25KM FEW/// 11/09 Q1019 A3010
RJOB 250000Z 23003KT 170V300 9999 FEW025 13/08 Q1018
RJOT 250000Z 25006KT 9999 FEW040 15/07 Q1019
RJOA 250000Z 29004KT 9999 FEW030 13/05 Q1019
TAF
RJOB 242308Z 2500/2606 24006KT 9999 FEW035
     BECMG 2510/2512 35005KT
     BECMG 2521/2600 21005KT
RJOT 242305Z 2500/2606 27010KT 9999 FEW030
     BECMG 2510/2512 15006KT
     BECMG 2521/2600 31005KT
RJOA 242305Z 2500/2606 27006KT 9999 FEW035
     BECMG 2600/2603 17005KT

本日は雲がほとんどない快晴。見えないサーマルを探したり、
訓練生はTGL訓練や滑空着陸、ライセンサーはNAVで大山の
紅葉を見に行ったり、各々に楽しんでいました。
また、本日、見学者1名が体験飛行をされました。


解散    17:50

1番機  10:15離陸 撤収機  17:10着陸 

SF25C JA2330 ファルケ     09Flt.4h15min  
17E   JA2342 タイフーン    06Flt.3h05min  
合計                    16Flt.7h20min

    << 戻る || ホームページ || 最新の掲示板へ